Bookmark and Share
Track history (hours):
 

Westwood Rainier

Last reported at 2014-Apr-19 19:33 UTC. Time now 2014-Apr-19 19:48 UTC.
Position N 49°18' W 123°02'.

Type: Cargo ship. MMSI: 311348993.

NotesDate/timePositionNaut miles runAvg speedWind from/ knotsBaromVisibWave heightAir tempDewpointWater temp
2014-Apr-19 19:33N 49°18' W 123°02'0 0.0
2014-Apr-19 18:32N 49°18' W 123°02'0 0.0
2014-Apr-19 17:33N 49°18' W 123°02'0 0.0
2014-Apr-19 16:33N 49°18' W 123°02'0 0.0
2014-Apr-19 15:33N 49°18' W 123°02'0 0.0
2014-Apr-19 14:33N 49°18' W 123°02'0 0.0
2014-Apr-19 13:33N 49°18' W 123°02'0 0.0
2014-Apr-19 12:33N 49°18' W 123°02'0 0.0
2014-Apr-19 11:32N 49°18' W 123°02'0 0.0
2014-Apr-19 10:32N 49°18' W 123°02'0 0.0
2014-Apr-19 09:33N 49°18' W 123°02'0 0.0
2014-Apr-19 08:33N 49°18' W 123°02'0 0.0
2014-Apr-19 07:33N 49°18' W 123°02'0 0.0
2014-Apr-19 06:33N 49°18' W 123°02'0 0.0
2014-Apr-19 05:33N 49°18' W 123°02'1 0.9
2014-Apr-19 04:32N 49°18' W 123°03'2 1.6
2014-Apr-19 03:31N 49°17' W 123°06'0 0.0
2014-Apr-19 02:31N 49°17' W 123°06'0 0.0
2014-Apr-19 01:31N 49°17' W 123°06'0 0.0
2014-Apr-19 00:31N 49°17' W 123°06'0 0.0
2014-Apr-18 23:31N 49°17' W 123°06'0 0.0
2014-Apr-18 22:31N 49°17' W 123°06'0 0.0
2014-Apr-18 21:31N 49°17' W 123°06'0 0.0
2014-Apr-18 20:31N 49°17' W 123°06'0 0.0
2014-Apr-18 19:31N 49°17' W 123°06'0 0.0
2014-Apr-18 18:31N 49°17' W 123°06'0 0.0
2014-Apr-18 17:31N 49°17' W 123°06'0 0.0
2014-Apr-18 16:31N 49°17' W 123°06'0 0.0
2014-Apr-18 15:31N 49°17' W 123°06'0 0.0
2014-Apr-18 14:31N 49°17' W 123°06'0 0.0
2014-Apr-18 13:31N 49°17' W 123°06'2 2.2
2014-Apr-18 12:33N 49°19' W 123°08'1211.9
2014-Apr-18 11:34N 49°10' W 123°20'1414.2
2014-Apr-18 10:34N 48°57' W 123°10'1212.5
2014-Apr-18 09:34N 48°46' W 123°02'1212.2
2014-Apr-18 08:34N 48°36' W 123°13'1312.5
2014-Apr-18 07:33N 48°23' W 123°13'1212.1
2014-Apr-18 06:33N 48°15' W 123°26'10 9.4
2014-Apr-18 05:32N 48°11' W 123°13'1414.0
2014-Apr-18 04:33N 48°12' W 122°53'1312.7
2014-Apr-18 03:33N 48°04' W 122°38'1414.2
2014-Apr-18 02:33N 47°51' W 122°28'1514.8
2014-Apr-18 01:33N 47°37' W 122°24'3 1.2
2014-Apr-17 23:16N 47°34' W 122°22'0 0.0
2014-Apr-17 22:25N 47°34' W 122°22'0 0.0
2014-Apr-17 20:25N 47°34' W 122°22'0 0.0
2014-Apr-17 19:19N 47°34' W 122°22'0 0.0
2014-Apr-17 17:13N 47°34' W 122°22'0 0.0
2014-Apr-17 16:19N 47°34' W 122°22'0 0.0
2014-Apr-17 15:31N 47°34' W 122°22'0 0.0
2014-Apr-17 14:25N 47°34' W 122°22'0 0.0
2014-Apr-17 13:31N 47°34' W 122°22'0 0.0
2014-Apr-17 12:28N 47°34' W 122°22'0 0.0
2014-Apr-17 11:31N 47°34' W 122°22'0 0.0
2014-Apr-17 10:31N 47°34' W 122°22'0 0.0
2014-Apr-17 09:31N 47°34' W 122°22'0 0.0
2014-Apr-17 08:31N 47°34' W 122°22'0 0.0
2014-Apr-17 07:31N 47°34' W 122°22'0 0.0
2014-Apr-17 06:31N 47°34' W 122°22'0 0.0
2014-Apr-17 05:31N 47°34' W 122°22'0 0.0
2014-Apr-17 04:31N 47°34' W 122°22'0 0.0
2014-Apr-17 03:31N 47°34' W 122°22'0 0.0
2014-Apr-17 02:31N 47°34' W 122°22'0 0.0
2014-Apr-17 01:31N 47°34' W 122°22'0 0.0
2014-Apr-17 00:31N 47°34' W 122°22'0 0.0
2014-Apr-16 23:31N 47°34' W 122°22'0 0.0
2014-Apr-16 22:31N 47°34' W 122°22'0 0.0
2014-Apr-16 21:31N 47°34' W 122°22'0 0.0
2014-Apr-16 20:31N 47°34' W 122°22'0 0.0
2014-Apr-16 19:31N 47°34' W 122°22'0 0.0
2014-Apr-16 18:31N 47°34' W 122°22'0 0.0
2014-Apr-16 17:31N 47°34' W 122°22'0 0.0
2014-Apr-16 16:31N 47°34' W 122°22'0 0.0
2014-Apr-16 15:31N 47°34' W 122°22'0 0.0
2014-Apr-16 14:31N 47°34' W 122°22'0 0.0
2014-Apr-16 13:25N 47°34' W 122°22'0 0.0
2014-Apr-16 12:31N 47°34' W 122°22'0 0.0
2014-Apr-16 11:31N 47°34' W 122°22'0 0.0
2014-Apr-16 10:31N 47°34' W 122°22'0 0.0
2014-Apr-16 09:31N 47°34' W 122°22'1 1.4
2014-Apr-16 08:33N 47°36' W 122°22'8 8.2
2014-Apr-16 07:34N 47°43' W 122°28'1413.8
2014-Apr-16 06:33N 47°56' W 122°20'5 5.1
2014-Apr-16 05:32N 47°59' W 122°13'0 0.0
2014-Apr-16 04:32N 47°59' W 122°13'0 0.0
2014-Apr-16 03:32N 47°59' W 122°13'0 0.0
2014-Apr-16 02:32N 47°59' W 122°13'0 0.0
2014-Apr-16 01:32N 47°59' W 122°13'0 0.0
2014-Apr-16 00:32N 47°59' W 122°13'0 0.0
2014-Apr-15 23:32N 47°59' W 122°13'0 0.0
2014-Apr-15 22:32N 47°59' W 122°13'1 1.2
2014-Apr-15 21:33N 47°58' W 122°15'1010.0
2014-Apr-15 20:33N 47°54' W 122°28'1312.7
2014-Apr-15 19:33N 48°04' W 122°39'1111.6
2014-Apr-15 18:34N 48°11' W 122°53'1414.1
2014-Apr-15 17:33N 48°11' W 123°14'10 9.9
2014-Apr-15 16:32N 48°12' W 123°29'1211.7
2014-Apr-15 15:33N 48°13' W 123°47'1212.3
2014-Apr-15 14:33N 48°16' W 124°04'13 6.5
2014-Apr-15 12:33N 48°22' W 124°22'1313.2
2014-Apr-15 11:34N 48°27' W 124°40'1413.8
2014-Apr-15 10:34N 48°28' W 125°01'1514.9
2014-Apr-15 09:34N 48°29' W 125°23'1413.8
2014-Apr-15 08:34N 48°32' W 125°43'4919.2
2014-Apr-15 06:00N 48°48' W 126°54'24313.5 270 / 161021.0 2.2 2.0 9.0 4.910.0
2014-Apr-14 12:00N 50°18' W 132°42'8714.6 230 / 231012.5 5.4 4.010.0 6.0
2014-Apr-14 06:00N 50°42' W 134°54'8313.8 170 / 301014.0 0.5 3.0 7.0 4.9 8.0
2014-Apr-14 00:00N 51°06' W 137°00'8614.3 160 / 301016.0 5.4 8.0 6.0
2014-Apr-13 18:00N 51°30' W 139°12'17314.5 160 / 241017.0 0.5 3.0 8.0 6.0 8.0
2014-Apr-13 06:00N 52°00' W 143°48'17414.5 230 / 161016.0 2.2 3.0 7.0 4.9 8.0
2014-Apr-12 18:00N 52°18' W 148°30'8113.5 140 / 361007.0 0.1 5.0 7.0 4.9 8.0
2014-Apr-12 12:00N 52°24' W 150°42'8414.1 160 / 371008.0 2.2 8.0 6.0
2014-Apr-12 06:00N 52°30' W 153°00'16113.4 160 / 401008.0 1.1 5.0 7.0 4.9 8.0
2014-Apr-11 18:00N 52°24' W 157°24'7712.8 130 / 40999.0 0.1 5.0 4.0 4.0 6.0
2014-Apr-11 12:00N 52°24' W 159°30'25914.4 090 / 371001.0 1.1 5.0 2.8
2014-Apr-10 18:00N 51°54' W 166°30'8413.9 170 / 211002.6 5.4 3.0 5.0 2.8
2014-Apr-10 12:00N 51°36' W 168°42'   170 / 24999.0 2.2 4.0 1.7

Dump ship's entire track history

sailing weather and tide predictions

Westwood Rainier — C6SI3 — position and weather